sensor_id;sensor_type;location;lat;lon;timestamp;pressure;altitude;pressure_sealevel;temperature;humidity
61014;BME280;46899;47.542;19.082;2023-03-19T00:01:51;100885.22;;;3.23;100.00
61014;BME280;46899;47.542;19.082;2023-03-19T00:04:54;100888.63;;;3.16;100.00
61014;BME280;46899;47.542;19.082;2023-03-19T00:07:56;100878.34;;;3.14;100.00
61014;BME280;46899;47.542;19.082;2023-03-19T00:11:04;100874.94;;;3.20;100.00
61014;BME280;46899;47.542;19.082;2023-03-19T00:14:07;100872.34;;;3.11;100.00
61014;BME280;46899;47.542;19.082;2023-03-19T00:17:10;100880.87;;;3.07;100.00
61014;BME280;46899;47.542;19.082;2023-03-19T00:20:12;100874.03;;;3.03;100.00
61014;BME280;46899;47.542;19.082;2023-03-19T00:23:16;100876.59;;;3.03;100.00
61014;BME280;46899;47.542;19.082;2023-03-19T00:26:18;100869.72;;;2.96;100.00
61014;BME280;46899;47.542;19.082;2023-03-19T00:29:22;100867.97;;;2.87;100.00
61014;BME280;46899;47.542;19.082;2023-03-19T00:32:24;100867.03;;;2.76;100.00
61014;BME280;46899;47.542;19.082;2023-03-19T00:35:27;100860.19;;;2.78;100.00
61014;BME280;46899;47.542;19.082;2023-03-19T00:38:30;100866.22;;;2.75;100.00
61014;BME280;46899;47.542;19.082;2023-03-19T00:41:32;100853.31;;;2.63;100.00
61014;BME280;46899;47.542;19.082;2023-03-19T00:44:35;100854.13;;;2.56;100.00
61014;BME280;46899;47.542;19.082;2023-03-19T00:47:38;100856.69;;;2.59;100.00
61014;BME280;46899;47.542;19.082;2023-03-19T00:50:40;100857.50;;;2.51;100.00
61014;BME280;46899;47.542;19.082;2023-03-19T00:53:43;100849.75;;;2.42;100.00
61014;BME280;46899;47.542;19.082;2023-03-19T00:56:45;100853.97;;;2.32;100.00
61014;BME280;46899;47.542;19.082;2023-03-19T00:59:49;100848.78;;;2.23;100.00
61014;BME280;46899;47.542;19.082;2023-03-19T01:02:51;100847.03;;;2.16;100.00
61014;BME280;46899;47.542;19.082;2023-03-19T01:05:54;100843.59;;;2.14;100.00
61014;BME280;46899;47.542;19.082;2023-03-19T01:08:56;100857.22;;;2.10;100.00
61014;BME280;46899;47.542;19.082;2023-03-19T01:12:00;100854.69;;;2.15;100.00
61014;BME280;46899;47.542;19.082;2023-03-19T01:15:06;100853.78;;;2.08;100.00
61014;BME280;46899;47.542;19.082;2023-03-19T01:18:09;100855.53;;;2.09;100.00
61014;BME280;46899;47.542;19.082;2023-03-19T01:21:12;100854.63;;;2.04;100.00
61014;BME280;46899;47.542;19.082;2023-03-19T01:24:17;100860.56;;;1.97;100.00
61014;BME280;46899;47.542;19.082;2023-03-19T01:27:21;100855.44;;;1.97;100.00
61014;BME280;46899;47.542;19.082;2023-03-19T01:30:24;100856.25;;;1.94;100.00
61014;BME280;46899;47.542;19.082;2023-03-19T01:33:28;100857.09;;;1.90;100.00
61014;BME280;46899;47.542;19.082;2023-03-19T01:36:31;100854.50;;;1.86;100.00
61014;BME280;46899;47.542;19.082;2023-03-19T01:39:34;100862.19;;;1.86;100.00
61014;BME280;46899;47.542;19.082;2023-03-19T01:42:53;100857.00;;;1.80;100.00
61014;BME280;46899;47.542;19.082;2023-03-19T01:49:09;100850.97;;;1.73;100.00
61014;BME280;46899;47.542;19.082;2023-03-19T01:52:13;100847.44;;;1.65;100.00
61014;BME280;46899;47.542;19.082;2023-03-19T01:55:17;100851.72;;;1.62;100.00
61014;BME280;46899;47.542;19.082;2023-03-19T01:58:20;100850.84;;;1.60;100.00
61014;BME280;46899;47.542;19.082;2023-03-19T02:01:27;100856.81;;;1.59;100.00
61014;BME280;46899;47.542;19.082;2023-03-19T02:04:33;100859.41;;;1.63;100.00
61014;BME280;46899;47.542;19.082;2023-03-19T02:07:37;100848.28;;;1.63;100.00
61014;BME280;46899;47.542;19.082;2023-03-19T02:10:41;100852.56;;;1.62;100.00
61014;BME280;46899;47.542;19.082;2023-03-19T02:13:44;100853.41;;;1.63;100.00
61014;BME280;46899;47.542;19.082;2023-03-19T02:16:48;100856.84;;;1.62;100.00
61014;BME280;46899;47.542;19.082;2023-03-19T02:19:56;100850.84;;;1.60;100.00
61014;BME280;46899;47.542;19.082;2023-03-19T02:26:22;100854.16;;;1.48;100.00
61014;BME280;46899;47.542;19.082;2023-03-19T02:29:25;100854.94;;;1.43;100.00
61014;BME280;46899;47.542;19.082;2023-03-19T02:32:31;100845.53;;;1.42;100.00
61014;BME280;46899;47.542;19.082;2023-03-19T02:35:33;100847.25;;;1.43;100.00
61014;BME280;46899;47.542;19.082;2023-03-19T02:38:36;100843.84;;;1.47;100.00
61014;BME280;46899;47.542;19.082;2023-03-19T02:41:40;100842.12;;;1.43;100.00
61014;BME280;46899;47.542;19.082;2023-03-19T02:44:43;100848.13;;;1.45;100.00
61014;BME280;46899;47.542;19.082;2023-03-19T02:47:45;100847.28;;;1.47;100.00
61014;BME280;46899;47.542;19.082;2023-03-19T02:50:48;100838.69;;;1.42;100.00
61014;BME280;46899;47.542;19.082;2023-03-19T02:53:50;100831.81;;;1.38;100.00
61014;BME280;46899;47.542;19.082;2023-03-19T02:56:53;100830.91;;;1.31;100.00
61014;BME280;46899;47.542;19.082;2023-03-19T02:59:55;100836.87;;;1.29;100.00
61014;BME280;46899;47.542;19.082;2023-03-19T03:02:58;100830.91;;;1.33;100.00
61014;BME280;46899;47.542;19.082;2023-03-19T03:06:01;100832.59;;;1.29;100.00
61014;BME280;46899;47.542;19.082;2023-03-19T03:09:04;100839.59;;;1.49;100.00
61014;BME280;46899;47.542;19.082;2023-03-19T03:12:07;100840.47;;;1.49;100.00
61014;BME280;46899;47.542;19.082;2023-03-19T03:15:10;100847.22;;;1.38;100.00
61014;BME280;46899;47.542;19.082;2023-03-19T03:18:13;100849.66;;;1.27;100.00
61014;BME280;46899;47.542;19.082;2023-03-19T03:21:16;100847.00;;;1.18;100.00
61014;BME280;46899;47.542;19.082;2023-03-19T03:24:21;100843.50;;;1.13;100.00
61014;BME280;46899;47.542;19.082;2023-03-19T03:27:24;100849.44;;;1.08;100.00
61014;BME280;46899;47.542;19.082;2023-03-19T03:30:26;100848.53;;;1.03;100.00
61014;BME280;46899;47.542;19.082;2023-03-19T03:33:29;100850.31;;;1.08;100.00
61014;BME280;46899;47.542;19.082;2023-03-19T03:36:31;100840.84;;;1.04;100.00
61014;BME280;46899;47.542;19.082;2023-03-19T03:39:35;100839.09;;;0.99;100.00
61014;BME280;46899;47.542;19.082;2023-03-19T03:42:39;100840.69;;;0.91;100.00
61014;BME280;46899;47.542;19.082;2023-03-19T03:45:42;100846.59;;;0.84;100.00
61014;BME280;46899;47.542;19.082;2023-03-19T03:48:46;100853.38;;;0.80;100.00
61014;BME280;46899;47.542;19.082;2023-03-19T03:51:50;100847.37;;;0.78;100.00
61014;BME280;46899;47.542;19.082;2023-03-19T03:54:53;100845.69;;;0.80;100.00
61014;BME280;46899;47.542;19.082;2023-03-19T03:57:56;100847.37;;;0.78;100.00
61014;BME280;46899;47.542;19.082;2023-03-19T04:00:59;100853.34;;;0.77;100.00
61014;BME280;46899;47.542;19.082;2023-03-19T04:04:02;100850.78;;;0.77;100.00
61014;BME280;46899;47.542;19.082;2023-03-19T04:07:05;100850.84;;;0.82;100.00
61014;BME280;46899;47.542;19.082;2023-03-19T04:10:11;100854.22;;;0.81;100.00
61014;BME280;46899;47.542;19.082;2023-03-19T04:13:14;100854.22;;;0.79;100.00
61014;BME280;46899;47.542;19.082;2023-03-19T04:16:17;100852.62;;;0.87;100.00
61014;BME280;46899;47.542;19.082;2023-03-19T04:19:20;100855.16;;;0.86;100.00
61014;BME280;46899;47.542;19.082;2023-03-19T04:22:22;100856.78;;;0.79;100.00
61014;BME280;46899;47.542;19.082;2023-03-19T04:25:25;100853.31;;;0.76;100.00
61014;BME280;46899;47.542;19.082;2023-03-19T04:28:28;100846.44;;;0.72;100.00
61014;BME280;46899;47.542;19.082;2023-03-19T04:31:31;100832.97;;;0.86;100.00
61014;BME280;46899;47.542;19.082;2023-03-19T04:34:33;100839.72;;;0.80;100.00
61014;BME280;46899;47.542;19.082;2023-03-19T04:37:36;100839.63;;;0.74;100.00
61014;BME280;46899;47.542;19.082;2023-03-19T04:40:40;100843.00;;;0.68;100.00
61014;BME280;46899;47.542;19.082;2023-03-19T04:43:43;100831.84;;;0.63;100.00
61014;BME280;46899;47.542;19.082;2023-03-19T04:46:46;100833.63;;;0.72;100.00
61014;BME280;46899;47.542;19.082;2023-03-19T04:49:49;100832.78;;;0.71;100.00
61014;BME280;46899;47.542;19.082;2023-03-19T04:52:52;100836.16;;;0.68;100.00
61014;BME280;46899;47.542;19.082;2023-03-19T04:55:56;100843.87;;;0.70;100.00
61014;BME280;46899;47.542;19.082;2023-03-19T04:58:59;100845.47;;;0.62;100.00
61014;BME280;46899;47.542;19.082;2023-03-19T05:02:01;100845.47;;;0.62;100.00
61014;BME280;46899;47.542;19.082;2023-03-19T05:05:05;100852.31;;;0.63;100.00
61014;BME280;46899;47.542;19.082;2023-03-19T05:08:08;100858.31;;;0.63;100.00
61014;BME280;46899;47.542;19.082;2023-03-19T05:11:11;100858.41;;;0.73;100.00
61014;BME280;46899;47.542;19.082;2023-03-19T05:14:15;100849.88;;;0.74;100.00
61014;BME280;46899;47.542;19.082;2023-03-19T05:17:18;100857.63;;;0.78;100.00
61014;BME280;46899;47.542;19.082;2023-03-19T05:20:22;100865.38;;;0.84;100.00
61014;BME280;46899;47.542;19.082;2023-03-19T05:23:25;100861.13;;;0.85;100.00
61014;BME280;46899;47.542;19.082;2023-03-19T05:26:28;100853.56;;;0.97;100.00
61014;BME280;46899;47.542;19.082;2023-03-19T05:29:35;100863.84;;;0.98;100.00
61014;BME280;46899;47.542;19.082;2023-03-19T05:32:44;100857.87;;;0.99;100.00
61014;BME280;46899;47.542;19.082;2023-03-19T05:35:48;100859.66;;;1.03;100.00
61014;BME280;46899;47.542;19.082;2023-03-19T05:38:53;100863.19;;;1.14;100.00
61014;BME280;46899;47.542;19.082;2023-03-19T05:41:57;100870.19;;;1.30;100.00
61014;BME280;46899;47.542;19.082;2023-03-19T05:45:01;100876.28;;;1.42;100.00
61014;BME280;46899;47.542;19.082;2023-03-19T05:48:06;100867.87;;;1.56;100.00
61014;BME280;46899;47.542;19.082;2023-03-19T05:51:11;100879.16;;;1.73;100.00
61014;BME280;46899;47.542;19.082;2023-03-19T05:54:13;100887.06;;;1.94;100.00
61014;BME280;46899;47.542;19.082;2023-03-19T05:57:17;100882.94;;;2.16;100.00
61014;BME280;46899;47.542;19.082;2023-03-19T06:00:20;100878.13;;;2.61;100.00
61014;BME280;46899;47.542;19.082;2023-03-19T06:03:25;100877.44;;;3.05;100.00
61014;BME280;46899;47.542;19.082;2023-03-19T06:06:28;100873.34;;;3.82;100.00
61014;BME280;46899;47.542;19.082;2023-03-19T06:09:31;100883.34;;;8.38;75.67
61014;BME280;46899;47.542;19.082;2023-03-19T06:12:33;100881.47;;;13.17;52.12
61014;BME280;46899;47.542;19.082;2023-03-19T06:15:39;100883.84;;;16.39;40.06
61014;BME280;46899;47.542;19.082;2023-03-19T06:18:42;100880.72;;;18.84;34.86
61014;BME280;46899;47.542;19.082;2023-03-19T06:21:45;100890.06;;;20.14;31.32
61014;BME280;46899;47.542;19.082;2023-03-19T06:24:47;100891.41;;;21.36;28.95
61014;BME280;46899;47.542;19.082;2023-03-19T06:27:50;100887.25;;;21.80;27.62
61014;BME280;46899;47.542;19.082;2023-03-19T06:30:54;100886.06;;;20.48;28.83
61014;BME280;46899;47.542;19.082;2023-03-19T06:33:57;100876.44;;;21.47;26.97
61014;BME280;46899;47.542;19.082;2023-03-19T06:37:00;100878.59;;;19.19;30.02
61014;BME280;46899;47.542;19.082;2023-03-19T06:40:03;100888.13;;;17.57;33.18
61014;BME280;46899;47.542;19.082;2023-03-19T06:43:06;100891.06;;;18.14;31.33
61014;BME280;46899;47.542;19.082;2023-03-19T06:46:10;100891.66;;;18.19;31.43
61014;BME280;46899;47.542;19.082;2023-03-19T06:49:13;100910.22;;;20.29;28.23
61014;BME280;46899;47.542;19.082;2023-03-19T06:52:16;100905.16;;;21.28;27.19
61014;BME280;46899;47.542;19.082;2023-03-19T06:55:19;100917.88;;;19.93;27.77
61014;BME280;46899;47.542;19.082;2023-03-19T06:58:22;100918.81;;;18.51;30.25
61014;BME280;46899;47.542;19.082;2023-03-19T07:01:25;100911.25;;;15.81;34.02
61014;BME280;46899;47.542;19.082;2023-03-19T07:04:28;100908.97;;;15.92;34.68
61014;BME280;46899;47.542;19.082;2023-03-19T07:07:31;100903.78;;;16.95;33.10
61014;BME280;46899;47.542;19.082;2023-03-19T07:10:34;100902.91;;;17.91;31.74
61014;BME280;46899;47.542;19.082;2023-03-19T07:13:37;100899.81;;;17.36;31.72
61014;BME280;46899;47.542;19.082;2023-03-19T07:16:40;100905.78;;;16.21;32.97
61014;BME280;46899;47.542;19.082;2023-03-19T07:19:42;100906.00;;;16.70;32.19
61014;BME280;46899;47.542;19.082;2023-03-19T07:22:45;100898.53;;;16.26;32.33
61014;BME280;46899;47.542;19.082;2023-03-19T07:25:47;100891.81;;;16.72;32.17
61014;BME280;46899;47.542;19.082;2023-03-19T07:28:50;100885.25;;;15.58;33.22
61014;BME280;46899;47.542;19.082;2023-03-19T07:31:53;100884.50;;;13.30;37.19
61014;BME280;46899;47.542;19.082;2023-03-19T07:34:55;100884.59;;;14.15;36.27
61014;BME280;46899;47.542;19.082;2023-03-19T07:37:58;100880.59;;;14.48;35.23
61014;BME280;46899;47.542;19.082;2023-03-19T07:41:03;100875.62;;;14.20;35.86
61014;BME280;46899;47.542;19.082;2023-03-19T07:44:05;100899.34;;;15.37;33.71
61014;BME280;46899;47.542;19.082;2023-03-19T07:47:08;100891.78;;;17.06;31.32
61014;BME280;46899;47.542;19.082;2023-03-19T07:50:29;100893.91;;;17.95;29.54
61014;BME280;46899;47.542;19.082;2023-03-19T07:53:32;100885.81;;;20.38;26.33
61014;BME280;46899;47.542;19.082;2023-03-19T07:56:34;100885.34;;;21.70;24.69
61014;BME280;46899;47.542;19.082;2023-03-19T07:59:37;100881.78;;;19.79;26.27
61014;BME280;46899;47.542;19.082;2023-03-19T08:02:40;100882.88;;;17.57;28.89
61014;BME280;46899;47.542;19.082;2023-03-19T08:05:44;100878.78;;;19.02;27.74
61014;BME280;46899;47.542;19.082;2023-03-19T08:08:51;100883.31;;;21.37;24.59
61014;BME280;46899;47.542;19.082;2023-03-19T08:11:53;100883.75;;;20.68;25.39
61014;BME280;46899;47.542;19.082;2023-03-19T08:14:56;100883.75;;;19.90;26.41
61014;BME280;46899;47.542;19.082;2023-03-19T08:17:59;100873.03;;;16.11;30.99
61014;BME280;46899;47.542;19.082;2023-03-19T08:21:01;100868.94;;;16.06;31.83
61014;BME280;46899;47.542;19.082;2023-03-19T08:24:05;100858.16;;;16.29;31.72
61014;BME280;46899;47.542;19.082;2023-03-19T08:27:07;100860.44;;;17.19;30.61
61014;BME280;46899;47.542;19.082;2023-03-19T08:30:10;100865.47;;;16.91;30.77
61014;BME280;46899;47.542;19.082;2023-03-19T08:33:13;100861.75;;;15.18;33.25
61014;BME280;46899;47.542;19.082;2023-03-19T08:36:16;100866.59;;;15.45;33.08
61014;BME280;46899;47.542;19.082;2023-03-19T08:39:18;100877.00;;;15.84;32.47
61014;BME280;46899;47.542;19.082;2023-03-19T08:42:21;100875.00;;;17.25;30.19
61014;BME280;46899;47.542;19.082;2023-03-19T08:45:24;100880.56;;;20.11;26.30
61014;BME280;46899;47.542;19.082;2023-03-19T08:48:27;100870.84;;;20.51;25.15
61014;BME280;46899;47.542;19.082;2023-03-19T08:51:29;100871.13;;;19.40;27.02
61014;BME280;46899;47.542;19.082;2023-03-19T08:54:33;100873.81;;;16.82;30.43
61014;BME280;46899;47.542;19.082;2023-03-19T08:57:36;100867.13;;;14.57;33.94
61014;BME280;46899;47.542;19.082;2023-03-19T09:00:38;100868.84;;;13.51;36.90
61014;BME280;46899;47.542;19.082;2023-03-19T09:03:41;100859.56;;;13.43;37.13
61014;BME280;46899;47.542;19.082;2023-03-19T09:06:44;100860.56;;;12.69;37.86
61014;BME280;46899;47.542;19.082;2023-03-19T09:09:47;100855.44;;;12.42;39.09
61014;BME280;46899;47.542;19.082;2023-03-19T09:12:50;100855.38;;;12.68;38.68
61014;BME280;46899;47.542;19.082;2023-03-19T09:15:53;100852.56;;;12.74;38.27
61014;BME280;46899;47.542;19.082;2023-03-19T09:18:56;100849.03;;;12.25;39.09
61014;BME280;46899;47.542;19.082;2023-03-19T09:22:00;100848.84;;;12.31;39.37
61014;BME280;46899;47.542;19.082;2023-03-19T09:25:03;100846.97;;;12.35;39.65
61014;BME280;46899;47.542;19.082;2023-03-19T09:28:06;100850.50;;;12.34;39.73
61014;BME280;46899;47.542;19.082;2023-03-19T09:31:09;100852.34;;;12.06;40.04
61014;BME280;46899;47.542;19.082;2023-03-19T09:34:12;100855.59;;;12.37;39.26
61014;BME280;46899;47.542;19.082;2023-03-19T09:37:15;100848.62;;;12.37;39.33
61014;BME280;46899;47.542;19.082;2023-03-19T09:40:21;100850.03;;;12.48;39.29
61014;BME280;46899;47.542;19.082;2023-03-19T09:46:40;100837.00;;;12.71;38.82
61014;BME280;46899;47.542;19.082;2023-03-19T09:49:46;100833.28;;;12.78;38.24
61014;BME280;46899;47.542;19.082;2023-03-19T09:53:00;100826.66;;;12.68;39.30
61014;BME280;46899;47.542;19.082;2023-03-19T09:56:07;100827.50;;;12.93;38.88
61014;BME280;46899;47.542;19.082;2023-03-19T09:59:13;100818.62;;;12.97;38.53
61014;BME280;46899;47.542;19.082;2023-03-19T10:05:23;100826.16;;;13.51;37.88
61014;BME280;46899;47.542;19.082;2023-03-19T10:22:02;100809.22;;;13.38;37.89
61014;BME280;46899;47.542;19.082;2023-03-19T10:24:35;100804.25;;;13.75;37.09
61014;BME280;46899;47.542;19.082;2023-03-19T10:27:39;100816.91;;;13.42;37.49
61014;BME280;46899;47.542;19.082;2023-03-19T10:30:43;100807.09;;;13.47;37.67
61014;BME280;46899;47.542;19.082;2023-03-19T10:37:04;100801.34;;;13.61;37.64
61014;BME280;46899;47.542;19.082;2023-03-19T10:40:13;100803.91;;;13.41;37.90
61014;BME280;46899;47.542;19.082;2023-03-19T10:43:20;100789.87;;;13.85;36.93
61014;BME280;46899;47.542;19.082;2023-03-19T10:46:23;100792.78;;;14.19;36.31
61014;BME280;46899;47.542;19.082;2023-03-19T10:49:26;100783.66;;;13.88;36.93
61014;BME280;46899;47.542;19.082;2023-03-19T10:52:33;100776.16;;;14.79;35.82
61014;BME280;46899;47.542;19.082;2023-03-19T10:55:36;100769.28;;;14.58;36.12
61014;BME280;46899;47.542;19.082;2023-03-19T10:58:39;100765.00;;;14.94;35.71
61014;BME280;46899;47.542;19.082;2023-03-19T11:01:42;100754.41;;;14.20;36.50
61014;BME280;46899;47.542;19.082;2023-03-19T11:04:45;100756.53;;;13.90;36.80
61014;BME280;46899;47.542;19.082;2023-03-19T11:07:49;100748.91;;;14.06;36.76
61014;BME280;46899;47.542;19.082;2023-03-19T11:10:52;100754.12;;;14.26;36.52
61014;BME280;46899;47.542;19.082;2023-03-19T11:13:54;100751.66;;;14.43;36.16
61014;BME280;46899;47.542;19.082;2023-03-19T11:17:04;100746.00;;;14.89;35.52
61014;BME280;46899;47.542;19.082;2023-03-19T11:20:54;100738.44;;;14.65;35.94
61014;BME280;46899;47.542;19.082;2023-03-19T11:23:36;100729.63;;;15.03;35.40
61014;BME280;46899;47.542;19.082;2023-03-19T11:26:39;100726.03;;;14.87;35.09
61014;BME280;46899;47.542;19.082;2023-03-19T11:29:42;100722.44;;;14.52;36.20
61014;BME280;46899;47.542;19.082;2023-03-19T11:36:03;100710.63;;;14.62;35.00
61014;BME280;46899;47.542;19.082;2023-03-19T11:52:28;100690.00;;;14.73;34.54
61014;BME280;46899;47.542;19.082;2023-03-19T12:05:42;100676.59;;;15.17;33.92
61014;BME280;46899;47.542;19.082;2023-03-19T12:21:39;100647.22;;;15.27;33.26
61014;BME280;46899;47.542;19.082;2023-03-19T12:31:02;100629.72;;;15.79;31.73
61014;BME280;46899;47.542;19.082;2023-03-19T12:37:16;100625.38;;;15.78;31.41
61014;BME280;46899;47.542;19.082;2023-03-19T12:43:47;100617.31;;;15.65;31.89
61014;BME280;46899;47.542;19.082;2023-03-19T12:49:59;100609.47;;;15.98;31.66
61014;BME280;46899;47.542;19.082;2023-03-19T12:53:04;100609.75;;;15.92;31.53
61014;BME280;46899;47.542;19.082;2023-03-19T12:56:11;100600.72;;;15.65;32.28
61014;BME280;46899;47.542;19.082;2023-03-19T13:08:55;100570.34;;;15.61;32.37
61014;BME280;46899;47.542;19.082;2023-03-19T13:12:06;100572.47;;;16.18;31.42
61014;BME280;46899;47.542;19.082;2023-03-19T13:15:15;100578.16;;;16.11;31.08
61014;BME280;46899;47.542;19.082;2023-03-19T13:21:31;100562.56;;;16.23;31.15
61014;BME280;46899;47.542;19.082;2023-03-19T13:24:36;100556.66;;;16.35;30.86
61014;BME280;46899;47.542;19.082;2023-03-19T13:27:40;100564.78;;;16.15;31.25
61014;BME280;46899;47.542;19.082;2023-03-19T13:30:56;100555.09;;;16.00;31.61
61014;BME280;46899;47.542;19.082;2023-03-19T13:34:05;100550.88;;;16.13;31.52
61014;BME280;46899;47.542;19.082;2023-03-19T13:37:11;100544.34;;;15.89;31.41
61014;BME280;46899;47.542;19.082;2023-03-19T13:40:36;100539.16;;;15.55;32.65
61014;BME280;46899;47.542;19.082;2023-03-19T13:43:40;100543.13;;;15.46;32.58
61014;BME280;46899;47.542;19.082;2023-03-19T13:46:44;100535.34;;;15.45;32.81
61014;BME280;46899;47.542;19.082;2023-03-19T13:59:54;100506.53;;;15.60;32.36
61014;BME280;46899;47.542;19.082;2023-03-19T14:02:57;100514.38;;;15.43;32.82
61014;BME280;46899;47.542;19.082;2023-03-19T14:06:00;100512.09;;;15.37;32.90
61014;BME280;46899;47.542;19.082;2023-03-19T14:09:03;100511.87;;;15.25;33.16
61014;BME280;46899;47.542;19.082;2023-03-19T14:12:17;100509.09;;;15.28;33.12
61014;BME280;46899;47.542;19.082;2023-03-19T14:15:22;100501.91;;;15.31;33.17
61014;BME280;46899;47.542;19.082;2023-03-19T14:18:25;100501.78;;;15.67;32.41
61014;BME280;46899;47.542;19.082;2023-03-19T14:21:32;100513.09;;;15.85;32.32
61014;BME280;46899;47.542;19.082;2023-03-19T14:24:37;100510.66;;;16.28;31.78
61014;BME280;46899;47.542;19.082;2023-03-19T14:27:59;100511.56;;;16.59;31.16
61014;BME280;46899;47.542;19.082;2023-03-19T14:31:04;100506.81;;;16.65;31.05
61014;BME280;46899;47.542;19.082;2023-03-19T14:40:49;100501.66;;;16.64;31.28
61014;BME280;46899;47.542;19.082;2023-03-19T14:53:51;100507.03;;;16.15;32.00
61014;BME280;46899;47.542;19.082;2023-03-19T14:56:55;100504.31;;;16.01;32.24
61014;BME280;46899;47.542;19.082;2023-03-19T14:59:58;100505.31;;;16.14;31.91
61014;BME280;46899;47.542;19.082;2023-03-19T15:03:01;100501.06;;;16.12;32.16
61014;BME280;46899;47.542;19.082;2023-03-19T15:06:04;100502.25;;;16.06;32.13
61014;BME280;46899;47.542;19.082;2023-03-19T15:09:18;100494.63;;;15.86;32.41
61014;BME280;46899;47.542;19.082;2023-03-19T15:12:25;100496.84;;;16.09;32.53
61014;BME280;46899;47.542;19.082;2023-03-19T15:15:51;100497.69;;;15.94;32.00
61014;BME280;46899;47.542;19.082;2023-03-19T15:18:57;100502.50;;;16.02;32.04
61014;BME280;46899;47.542;19.082;2023-03-19T15:25:12;100501.41;;;15.90;32.17
61014;BME280;46899;47.542;19.082;2023-03-19T15:28:15;100497.81;;;15.60;32.25
61014;BME280;46899;47.542;19.082;2023-03-19T15:31:18;100503.62;;;15.49;32.83
61014;BME280;46899;47.542;19.082;2023-03-19T15:34:37;100496.75;;;15.30;33.29
61014;BME280;46899;47.542;19.082;2023-03-19T15:37:44;100494.69;;;15.19;33.75
61014;BME280;46899;47.542;19.082;2023-03-19T15:40:49;100501.87;;;14.98;33.93
61014;BME280;46899;47.542;19.082;2023-03-19T15:43:52;100508.53;;;14.88;34.13
61014;BME280;46899;47.542;19.082;2023-03-19T15:46:56;100501.81;;;14.83;34.48
61014;BME280;46899;47.542;19.082;2023-03-19T15:50:06;100501.41;;;14.73;34.63
61014;BME280;46899;47.542;19.082;2023-03-19T15:53:14;100501.87;;;14.64;34.86
61014;BME280;46899;47.542;19.082;2023-03-19T15:56:18;100504.22;;;14.52;35.08
61014;BME280;46899;47.542;19.082;2023-03-19T15:59:22;100509.91;;;14.43;35.74
61014;BME280;46899;47.542;19.082;2023-03-19T16:02:31;100520.53;;;14.21;35.87
61014;BME280;46899;47.542;19.082;2023-03-19T16:05:37;100527.47;;;14.03;36.65
61014;BME280;46899;47.542;19.082;2023-03-19T16:08:47;100518.25;;;13.95;36.39
61014;BME280;46899;47.542;19.082;2023-03-19T16:11:51;100514.87;;;13.93;36.40
61014;BME280;46899;47.542;19.082;2023-03-19T16:14:53;100520.44;;;14.04;36.42
61014;BME280;46899;47.542;19.082;2023-03-19T16:18:07;100529.50;;;13.97;36.77
61014;BME280;46899;47.542;19.082;2023-03-19T16:21:14;100524.28;;;13.97;36.65
61014;BME280;46899;47.542;19.082;2023-03-19T16:24:31;100529.28;;;13.83;36.96
61014;BME280;46899;47.542;19.082;2023-03-19T16:27:37;100524.91;;;13.83;36.96
61014;BME280;46899;47.542;19.082;2023-03-19T16:30:44;100527.41;;;13.66;37.19
61014;BME280;46899;47.542;19.082;2023-03-19T16:33:48;100519.72;;;13.44;37.64
61014;BME280;46899;47.542;19.082;2023-03-19T16:36:51;100523.09;;;13.26;38.27
61014;BME280;46899;47.542;19.082;2023-03-19T16:39:55;100521.66;;;12.99;39.14
61014;BME280;46899;47.542;19.082;2023-03-19T16:43:13;100526.19;;;12.74;39.48
61014;BME280;46899;47.542;19.082;2023-03-19T16:46:16;100532.22;;;12.54;40.06
61014;BME280;46899;47.542;19.082;2023-03-19T16:49:19;100539.19;;;12.32;40.81
61014;BME280;46899;47.542;19.082;2023-03-19T16:52:22;100547.00;;;12.10;41.94
61014;BME280;46899;47.542;19.082;2023-03-19T16:55:29;100548.25;;;12.00;42.69
61014;BME280;46899;47.542;19.082;2023-03-19T16:58:36;100542.97;;;12.02;42.61
61014;BME280;46899;47.542;19.082;2023-03-19T17:01:43;100546.81;;;11.92;42.58
61014;BME280;46899;47.542;19.082;2023-03-19T17:04:46;100549.72;;;11.84;42.81
61014;BME280;46899;47.542;19.082;2023-03-19T17:07:49;100548.38;;;11.74;43.69
61014;BME280;46899;47.542;19.082;2023-03-19T17:10:52;100553.56;;;11.74;44.32
61014;BME280;46899;47.542;19.082;2023-03-19T17:13:56;100553.97;;;11.62;44.23
61014;BME280;46899;47.542;19.082;2023-03-19T17:16:58;100548.94;;;11.57;44.31
61014;BME280;46899;47.542;19.082;2023-03-19T17:20:01;100559.81;;;11.70;43.83
61014;BME280;46899;47.542;19.082;2023-03-19T17:23:11;100557.91;;;11.75;44.24
61014;BME280;46899;47.542;19.082;2023-03-19T17:26:18;100555.66;;;11.88;44.08
61014;BME280;46899;47.542;19.082;2023-03-19T17:29:21;100555.97;;;12.03;43.09
61014;BME280;46899;47.542;19.082;2023-03-19T17:32:26;100555.66;;;12.34;42.34
61014;BME280;46899;47.542;19.082;2023-03-19T17:35:29;100560.44;;;12.45;42.47
61014;BME280;46899;47.542;19.082;2023-03-19T17:38:33;100552.69;;;12.43;42.45
61014;BME280;46899;47.542;19.082;2023-03-19T17:41:36;100558.87;;;12.41;42.40
61014;BME280;46899;47.542;19.082;2023-03-19T17:44:38;100564.19;;;12.37;42.63
61014;BME280;46899;47.542;19.082;2023-03-19T17:47:48;100563.88;;;12.23;42.94
61014;BME280;46899;47.542;19.082;2023-03-19T17:50:52;100558.25;;;12.11;43.33
61014;BME280;46899;47.542;19.082;2023-03-19T17:53:56;100556.97;;;11.99;44.13
61014;BME280;46899;47.542;19.082;2023-03-19T17:57:01;100556.28;;;11.94;44.26
61014;BME280;46899;47.542;19.082;2023-03-19T18:00:03;100557.94;;;11.97;44.54